createdAt,value
2018-09-15T00:02:11.082Z,101497.34
2018-09-15T00:04:39.310Z,101502.88
2018-09-15T00:07:07.545Z,101498.17
2018-09-15T00:09:35.807Z,101496.38
2018-09-15T00:12:04.095Z,101499.04
2018-09-15T00:14:32.332Z,101503.33
2018-09-15T00:17:00.560Z,101500.26
2018-09-15T00:19:29.045Z,101504.73
2018-09-15T00:21:57.303Z,101502.39
2018-09-15T00:24:25.528Z,101509.55
2018-09-15T00:26:53.763Z,101506.09
2018-09-15T00:29:21.983Z,101509.60
2018-09-15T00:31:50.224Z,101501.73
2018-09-15T00:34:18.459Z,101510.52
2018-09-15T00:36:46.715Z,101507.80
2018-09-15T00:39:14.955Z,101511.05
2018-09-15T00:41:43.261Z,101507.99
2018-09-15T00:44:11.429Z,101510.80
2018-09-15T00:46:39.658Z,101508.91
2018-09-15T00:49:07.878Z,101508.61
2018-09-15T00:51:36.118Z,101505.55
2018-09-15T00:54:04.361Z,101511.32
2018-09-15T00:56:32.611Z,101516.00
2018-09-15T00:59:00.838Z,101513.67
2018-09-15T01:01:33.342Z,101516.88
2018-09-15T01:04:02.647Z,101522.30
2018-09-15T01:06:30.908Z,101523.39
2018-09-15T01:08:59.516Z,101528.77
2018-09-15T01:11:27.930Z,101521.37
2018-09-15T01:13:56.752Z,101520.85
2018-09-15T01:16:24.938Z,101527.84
2018-09-15T01:18:53.231Z,101516.52
2018-09-15T01:21:22.460Z,101523.60
2018-09-15T01:23:50.707Z,101518.63
2018-09-15T01:26:18.924Z,101521.41
2018-09-15T01:28:50.467Z,101517.84
2018-09-15T01:31:20.158Z,101518.80
2018-09-15T01:33:48.425Z,101519.55
2018-09-15T01:36:16.647Z,101516.52
2018-09-15T01:38:44.916Z,101519.40
2018-09-15T01:41:13.143Z,101519.88
2018-09-15T01:43:41.369Z,101521.16
2018-09-15T01:46:09.602Z,101526.06
2018-09-15T01:48:37.826Z,101533.53
2018-09-15T01:51:06.077Z,101535.55
2018-09-15T01:53:34.306Z,101544.81
2018-09-15T01:56:02.556Z,101550.02
2018-09-15T01:58:30.794Z,101547.52
2018-09-15T02:00:59.044Z,101546.56
2018-09-15T02:03:28.642Z,101544.85
2018-09-15T02:05:57.450Z,101549.75
2018-09-15T02:08:25.673Z,101547.61
2018-09-15T02:10:53.979Z,101549.63
2018-09-15T02:13:23.031Z,101553.09
2018-09-15T02:15:51.579Z,101551.63
2018-09-15T02:18:19.822Z,101556.19
2018-09-15T02:20:48.067Z,101558.38
2018-09-15T02:23:16.490Z,101556.27
2018-09-15T02:25:44.729Z,101556.73
2018-09-15T02:28:12.959Z,101550.59
2018-09-15T02:30:41.200Z,101550.66
2018-09-15T02:33:09.439Z,101553.64
2018-09-15T02:35:37.672Z,101557.47
2018-09-15T02:38:05.971Z,101554.29
2018-09-15T02:40:34.195Z,101557.87
2018-09-15T02:43:02.428Z,101557.72
2018-09-15T02:45:30.686Z,101549.71
2018-09-15T02:47:58.942Z,101550.26
2018-09-15T02:50:27.169Z,101554.05
2018-09-15T02:52:55.401Z,101555.06
2018-09-15T02:55:23.624Z,101553.24
2018-09-15T02:57:51.900Z,101551.97
2018-09-15T03:00:20.142Z,101554.59
2018-09-15T03:02:48.394Z,101560.34
2018-09-15T03:05:16.613Z,101560.34
2018-09-15T03:07:44.847Z,101558.96
2018-09-15T03:10:13.134Z,101564.17
2018-09-15T03:12:41.372Z,101566.93
2018-09-15T03:15:09.614Z,101560.08
2018-09-15T03:17:37.843Z,101567.53
2018-09-15T03:20:06.139Z,101569.02
2018-09-15T03:22:34.403Z,101572.39
2018-09-15T03:25:02.648Z,101563.66
2018-09-15T03:27:30.866Z,101569.30
2018-09-15T03:29:59.091Z,101566.95
2018-09-15T03:32:27.324Z,101566.54
2018-09-15T03:34:55.562Z,101563.41
2018-09-15T03:37:23.886Z,101565.35
2018-09-15T03:39:52.123Z,101564.77
2018-09-15T03:42:20.359Z,101567.34
2018-09-15T03:44:48.623Z,101571.66
2018-09-15T03:47:16.839Z,101564.17
2018-09-15T03:49:45.083Z,101566.38
2018-09-15T03:52:13.304Z,101561.11
2018-09-15T03:54:41.545Z,101564.59
2018-09-15T03:57:09.796Z,101570.25
2018-09-15T03:59:38.047Z,101569.06
2018-09-15T04:02:06.311Z,101567.38
2018-09-15T04:04:34.539Z,101571.73
2018-09-15T04:07:02.749Z,101570.87
2018-09-15T04:09:30.978Z,101575.20
2018-09-15T04:11:59.202Z,101582.14
2018-09-15T04:14:27.437Z,101579.58
2018-09-15T04:16:55.666Z,101588.23
2018-09-15T04:19:23.950Z,101587.36
2018-09-15T04:21:52.161Z,101583.47
2018-09-15T04:24:20.398Z,101584.02
2018-09-15T04:26:48.666Z,101584.00
2018-09-15T04:29:16.899Z,101577.90
2018-09-15T04:31:45.150Z,101584.86
2018-09-15T04:34:13.387Z,101586.16
2018-09-15T04:36:41.675Z,101592.75
2018-09-15T04:39:11.394Z,101592.71
2018-09-15T04:41:39.704Z,101599.27
2018-09-15T04:44:08.268Z,101602.32
2018-09-15T04:46:36.525Z,101602.31
2018-09-15T04:49:04.821Z,101599.72
2018-09-15T04:51:33.072Z,101616.73
2018-09-15T04:54:01.319Z,101609.75
2018-09-15T04:56:29.789Z,101615.84
2018-09-15T04:58:59.158Z,101618.92
2018-09-15T05:01:27.378Z,101619.83
2018-09-15T05:03:55.607Z,101621.54
2018-09-15T05:06:23.840Z,101625.98
2018-09-15T05:08:52.138Z,101626.37
2018-09-15T05:11:20.413Z,101631.62
2018-09-15T05:13:48.668Z,101628.17
2018-09-15T05:16:16.887Z,101632.48
2018-09-15T05:18:45.111Z,101632.48
2018-09-15T05:21:13.351Z,101632.06
2018-09-15T05:23:41.583Z,101635.54
2018-09-15T05:26:09.825Z,101635.97
2018-09-15T05:28:38.051Z,101632.95
2018-09-15T05:31:06.358Z,101635.54
2018-09-15T05:33:34.579Z,101647.31
2018-09-15T05:36:04.062Z,101648.16
2018-09-15T05:38:32.307Z,101649.48
2018-09-15T05:41:00.541Z,101655.58
2018-09-15T05:43:28.763Z,101654.70
2018-09-15T05:45:57.033Z,101664.29
2018-09-15T05:48:25.257Z,101656.47
2018-09-15T05:50:53.479Z,101665.61
2018-09-15T05:53:21.704Z,101663.42
2018-09-15T05:55:49.957Z,101663.42
2018-09-15T05:58:18.199Z,101666.89
2018-09-15T06:00:46.455Z,101671.69
2018-09-15T06:03:14.677Z,101670.83
2018-09-15T06:05:42.926Z,101668.64
2018-09-15T06:08:11.181Z,101675.17
2018-09-15T06:10:39.413Z,101671.27
2018-09-15T06:13:07.638Z,101673.44
2018-09-15T06:15:35.874Z,101679.95
2018-09-15T06:18:04.172Z,101682.16
2018-09-15T06:20:32.382Z,101685.64
2018-09-15T06:23:00.634Z,101679.94
2018-09-15T06:25:28.899Z,101679.52
2018-09-15T06:27:57.218Z,101687.78
2018-09-15T06:30:25.458Z,101684.72
2018-09-15T06:32:53.719Z,101682.09
2018-09-15T06:35:22.051Z,101685.14
2018-09-15T06:37:50.312Z,101686.00
2018-09-15T06:40:18.538Z,101688.66
2018-09-15T06:42:46.839Z,101685.56
2018-09-15T06:45:15.100Z,101692.04
2018-09-15T06:47:43.323Z,101691.14
2018-09-15T06:50:11.635Z,101693.69
2018-09-15T06:52:39.879Z,101684.47
2018-09-15T06:55:08.206Z,101697.99
2018-09-15T06:57:36.482Z,101698.30
2018-09-15T07:00:04.807Z,101696.39
2018-09-15T07:02:33.025Z,101696.62
2018-09-15T07:05:01.342Z,101699.50
2018-09-15T07:07:29.585Z,101691.44
2018-09-15T07:09:57.810Z,101704.30
2018-09-15T07:12:26.109Z,101704.70
2018-09-15T07:14:54.422Z,101712.11
2018-09-15T07:17:22.699Z,101716.30
2018-09-15T07:19:50.965Z,101719.62
2018-09-15T07:22:19.289Z,101727.59
2018-09-15T07:24:47.591Z,101734.42
2018-09-15T07:27:15.859Z,101716.17
2018-09-15T07:29:44.102Z,101726.88
2018-09-15T07:32:12.967Z,101724.41
2018-09-15T07:34:41.267Z,101716.43
2018-09-15T07:37:09.713Z,101720.76
2018-09-15T07:39:38.083Z,101723.22
2018-09-15T07:42:06.339Z,101729.38
2018-09-15T07:44:35.628Z,101737.27
2018-09-15T07:47:03.856Z,101739.06
2018-09-15T07:49:32.416Z,101733.90
2018-09-15T07:52:00.668Z,101732.14
2018-09-15T07:54:28.913Z,101741.43
2018-09-15T07:56:57.135Z,101744.20
2018-09-15T07:59:25.460Z,101752.13
2018-09-15T08:01:53.721Z,101747.70
2018-09-15T08:04:21.902Z,101747.52
2018-09-15T08:06:50.126Z,101752.03
2018-09-15T08:09:18.376Z,101749.27
2018-09-15T08:11:46.623Z,101748.36
2018-09-15T08:14:14.862Z,101752.25
2018-09-15T08:16:43.152Z,101755.71
2018-09-15T08:19:11.405Z,101755.36
2018-09-15T08:21:39.672Z,101749.88
2018-09-15T08:24:07.918Z,101760.78
2018-09-15T08:26:36.189Z,101758.39
2018-09-15T08:29:04.443Z,101763.78
2018-09-15T08:31:32.721Z,101770.84
2018-09-15T08:34:00.956Z,101769.14
2018-09-15T08:36:29.193Z,101773.33
2018-09-15T08:38:57.431Z,101774.37
2018-09-15T08:41:25.747Z,101774.04
2018-09-15T08:43:53.965Z,101766.64
2018-09-15T08:46:22.185Z,101771.50
2018-09-15T08:48:50.423Z,101766.11
2018-09-15T08:51:18.691Z,101762.92
2018-09-15T08:53:46.925Z,101758.68
2018-09-15T08:56:15.171Z,101756.58
2018-09-15T08:58:43.395Z,101756.05
2018-09-15T09:01:11.638Z,101750.82
2018-09-15T09:03:39.921Z,101747.47
2018-09-15T09:06:08.166Z,101752.75
2018-09-15T09:08:36.450Z,101752.53
2018-09-15T09:11:04.687Z,101757.23
2018-09-15T09:13:32.918Z,101757.17
2018-09-15T09:16:01.160Z,101763.34
2018-09-15T09:18:29.429Z,101767.48
2018-09-15T09:20:57.691Z,101777.72
2018-09-15T09:23:25.938Z,101768.23
2018-09-15T09:25:54.225Z,101774.44
2018-09-15T09:28:22.497Z,101782.10
2018-09-15T09:30:52.767Z,101790.48
2018-09-15T09:33:21.118Z,101783.31
2018-09-15T09:35:49.326Z,101784.09
2018-09-15T09:38:17.657Z,101779.03
2018-09-15T09:40:45.802Z,101780.92
2018-09-15T09:43:14.119Z,101777.38
2018-09-15T09:45:42.354Z,101782.19
2018-09-15T09:48:10.701Z,101783.44
2018-09-15T09:50:38.883Z,101779.01
2018-09-15T09:53:07.281Z,101773.38
2018-09-15T09:55:35.546Z,101774.11
2018-09-15T09:58:03.778Z,101771.13
2018-09-15T10:00:37.445Z,101775.17
2018-09-15T10:03:05.791Z,101777.39
2018-09-15T10:05:34.046Z,101773.99
2018-09-15T10:08:02.266Z,101780.40
2018-09-15T10:10:30.514Z,101772.45
2018-09-15T10:12:58.791Z,101772.34
2018-09-15T10:15:27.096Z,101785.33
2018-09-15T10:17:55.338Z,101780.69
2018-09-15T10:20:23.648Z,101773.13
2018-09-15T10:22:51.898Z,101774.19
2018-09-15T10:25:20.115Z,101771.11
2018-09-15T10:27:48.341Z,101766.59
2018-09-15T10:30:16.571Z,101757.34
2018-09-15T10:32:44.807Z,101759.91
2018-09-15T10:35:13.069Z,101756.27
2018-09-15T10:37:41.278Z,101758.83
2018-09-15T10:40:09.570Z,101745.49
2018-09-15T10:42:37.778Z,101739.68
2018-09-15T10:45:06.069Z,101753.76
2018-09-15T10:47:34.325Z,101748.63
2018-09-15T10:50:02.571Z,101745.69
2018-09-15T10:52:30.807Z,101752.67
2018-09-15T10:54:59.018Z,101758.67
2018-09-15T10:57:27.251Z,101757.51
2018-09-15T10:59:55.463Z,101760.74
2018-09-15T11:02:23.700Z,101752.27
2018-09-15T11:04:51.925Z,101742.67
2018-09-15T11:07:20.142Z,101747.79
2018-09-15T11:09:48.398Z,101743.50
2018-09-15T11:12:16.618Z,101749.54
2018-09-15T11:14:44.929Z,101742.13
2018-09-15T11:17:13.164Z,101749.00
2018-09-15T11:19:41.378Z,101754.66
2018-09-15T11:22:09.617Z,101750.39
2018-09-15T11:24:37.852Z,101757.23
2018-09-15T11:27:06.382Z,101762.71
2018-09-15T11:29:34.642Z,101764.71
2018-09-15T11:32:03.180Z,101758.55
2018-09-15T11:34:31.407Z,101749.30
2018-09-15T11:36:59.626Z,101749.61
2018-09-15T11:39:27.866Z,101747.42
2018-09-15T11:41:56.119Z,101748.60
2018-09-15T11:44:24.355Z,101747.84
2018-09-15T11:46:52.590Z,101762.05
2018-09-15T11:49:20.851Z,101750.50
2018-09-15T11:51:49.087Z,101751.44
2018-09-15T11:54:17.454Z,101747.16
2018-09-15T11:56:45.715Z,101750.36
2018-09-15T11:59:14.039Z,101747.98
2018-09-15T12:01:42.268Z,101742.09
2018-09-15T12:04:11.600Z,101751.56
2018-09-15T12:06:39.846Z,101744.20
2018-09-15T12:09:08.921Z,101737.24
2018-09-15T12:11:37.186Z,101734.08
2018-09-15T12:14:05.442Z,101731.42
2018-09-15T12:16:33.629Z,101740.72
2018-09-15T12:19:01.922Z,101743.83
2018-09-15T12:21:30.152Z,101743.13
2018-09-15T12:23:58.384Z,101746.08
2018-09-15T12:26:26.610Z,101750.29
2018-09-15T12:28:54.986Z,101754.34
2018-09-15T12:31:23.730Z,101748.33
2018-09-15T12:33:51.977Z,101752.20
2018-09-15T12:36:20.234Z,101746.69
2018-09-15T12:38:48.471Z,101752.77
2018-09-15T12:41:16.714Z,101744.27
2018-09-15T12:43:44.987Z,101754.24
2018-09-15T12:46:13.215Z,101750.13
2018-09-15T12:48:41.451Z,101732.08
2018-09-15T12:51:09.737Z,101736.28
2018-09-15T12:53:38.565Z,101734.73
2018-09-15T12:56:06.883Z,101733.73
2018-09-15T12:58:35.109Z,101733.65
2018-09-15T13:01:03.366Z,101736.73
2018-09-15T13:03:31.655Z,101737.06
2018-09-15T13:05:59.888Z,101731.96
2018-09-15T13:08:28.135Z,101735.56
2018-09-15T13:10:56.382Z,101740.06
2018-09-15T13:13:24.649Z,101735.34
2018-09-15T13:15:52.886Z,101728.02
2018-09-15T13:18:21.122Z,101739.47
2018-09-15T13:20:51.670Z,101729.89
2018-09-15T13:23:20.066Z,101721.20
2018-09-15T13:25:48.357Z,101721.39
2018-09-15T13:28:16.602Z,101720.34
2018-09-15T13:30:44.861Z,101728.54
2018-09-15T13:33:13.176Z,101734.03
2018-09-15T13:35:41.397Z,101732.39
2018-09-15T13:38:09.742Z,101734.27
2018-09-15T13:40:37.994Z,101734.42
2018-09-15T13:43:06.267Z,101733.23
2018-09-15T13:45:34.473Z,101730.14
2018-09-15T13:48:02.755Z,101713.62
2018-09-15T13:50:31.010Z,101717.50
2018-09-15T13:52:59.282Z,101712.76
2018-09-15T13:55:27.563Z,101714.13
2018-09-15T13:57:55.798Z,101720.89
2018-09-15T14:00:24.101Z,101711.81
2018-09-15T14:02:52.327Z,101716.88
2018-09-15T14:05:20.604Z,101708.09
2018-09-15T14:07:48.807Z,101705.41
2018-09-15T14:10:19.010Z,101703.52
2018-09-15T14:12:45.322Z,101700.12
2018-09-15T14:15:13.582Z,101701.95
2018-09-15T14:17:41.817Z,101715.34
2018-09-15T14:20:10.071Z,101727.34
2018-09-15T14:22:38.321Z,101722.05
2018-09-15T14:25:06.564Z,101728.33
2018-09-15T14:27:34.911Z,101726.73
2018-09-15T14:30:03.143Z,101730.38
2018-09-15T14:32:36.403Z,101730.61
2018-09-15T14:35:04.740Z,101733.28
2018-09-15T14:37:32.989Z,101735.77
2018-09-15T14:40:01.255Z,101735.02
2018-09-15T14:42:29.565Z,101737.78
2018-09-15T14:44:57.796Z,101746.58
2018-09-15T14:47:26.043Z,101742.79
2018-09-15T14:49:54.297Z,101749.81
2018-09-15T14:52:22.515Z,101742.69
2018-09-15T14:54:50.758Z,101739.56
2018-09-15T14:57:18.981Z,101753.01
2018-09-15T14:59:47.240Z,101749.47
2018-09-15T15:02:15.584Z,101746.17
2018-09-15T15:04:43.813Z,101741.70
2018-09-15T15:07:12.047Z,101743.02
2018-09-15T15:09:40.303Z,101750.28
2018-09-15T15:12:08.551Z,101745.48
2018-09-15T15:14:37.818Z,101746.04
2018-09-15T15:17:06.102Z,101747.64
2018-09-15T15:19:34.369Z,101740.31
2018-09-15T15:22:02.602Z,101752.20
2018-09-15T15:24:30.842Z,101733.63
2018-09-15T15:26:59.123Z,101731.09
2018-09-15T15:29:27.475Z,101731.80
2018-09-15T15:31:55.707Z,101732.05
2018-09-15T15:34:23.957Z,101728.75
2018-09-15T15:36:52.208Z,101726.22
2018-09-15T15:39:20.435Z,101728.60
2018-09-15T15:41:49.754Z,101727.30
2018-09-15T15:44:18.008Z,101736.55
2018-09-15T15:46:47.346Z,101732.55
2018-09-15T15:49:15.637Z,101734.44
2018-09-15T15:51:43.910Z,101734.75
2018-09-15T15:54:12.451Z,101739.59
2018-09-15T15:56:40.812Z,101737.81
2018-09-15T15:59:09.065Z,101743.65
2018-09-15T16:01:37.447Z,101740.98
2018-09-15T16:04:05.686Z,101739.59
2018-09-15T16:06:33.946Z,101747.50
2018-09-15T16:09:05.073Z,101742.57
2018-09-15T16:11:33.333Z,101741.25
2018-09-15T16:14:01.596Z,101732.21
2018-09-15T16:16:29.827Z,101732.40
2018-09-15T16:18:58.113Z,101735.91
2018-09-15T16:21:26.361Z,101735.44
2018-09-15T16:23:54.608Z,101734.57
2018-09-15T16:26:22.839Z,101737.31
2018-09-15T16:28:51.147Z,101733.33
2018-09-15T16:31:19.642Z,101733.04
2018-09-15T16:33:47.898Z,101732.83
2018-09-15T16:36:19.980Z,101729.90
2018-09-15T16:38:48.279Z,101729.08
2018-09-15T16:41:16.551Z,101730.75
2018-09-15T16:43:50.314Z,101721.56
2018-09-15T16:46:19.662Z,101728.73
2018-09-15T16:48:49.949Z,101724.25
2018-09-15T16:51:18.413Z,101726.02
2018-09-15T16:53:47.113Z,101728.66
2018-09-15T16:56:15.354Z,101727.61
2018-09-15T16:58:44.362Z,101723.66
2018-09-15T17:01:12.622Z,101728.55
2018-09-15T17:03:40.858Z,101728.94
2018-09-15T17:06:09.160Z,101730.83
2018-09-15T17:08:47.387Z,101737.58
2018-09-15T17:11:15.757Z,101738.12
2018-09-15T17:13:44.005Z,101736.45
2018-09-15T17:16:12.262Z,101733.44
2018-09-15T17:18:42.615Z,101737.84
2018-09-15T17:21:11.919Z,101738.17
2018-09-15T17:23:40.198Z,101740.38
2018-09-15T17:26:08.482Z,101744.42
2018-09-15T17:28:44.953Z,101737.06
2018-09-15T17:31:13.268Z,101743.01
2018-09-15T17:33:41.434Z,101747.72
2018-09-15T17:36:09.662Z,101740.22
2018-09-15T17:38:37.913Z,101753.52
2018-09-15T17:41:06.193Z,101742.26
2018-09-15T17:43:34.460Z,101748.05
2018-09-15T17:46:02.780Z,101741.38
2018-09-15T17:48:31.043Z,101754.95
2018-09-15T17:50:59.282Z,101760.00
2018-09-15T17:53:27.527Z,101759.40
2018-09-15T17:55:55.878Z,101760.59
2018-09-15T17:58:24.113Z,101766.31
2018-09-15T18:00:52.363Z,101765.33
2018-09-15T18:03:20.779Z,101760.63
2018-09-15T18:05:48.974Z,101768.66
2018-09-15T18:08:17.253Z,101768.59
2018-09-15T18:10:45.547Z,101768.77
2018-09-15T18:13:13.780Z,101777.28
2018-09-15T18:15:42.038Z,101778.66
2018-09-15T18:18:10.348Z,101777.89
2018-09-15T18:20:38.594Z,101781.23
2018-09-15T18:23:06.878Z,101786.49
2018-09-15T18:25:35.115Z,101789.27
2018-09-15T18:28:03.397Z,101784.17
2018-09-15T18:30:32.715Z,101789.37
2018-09-15T18:33:00.963Z,101788.07
2018-09-15T18:35:29.273Z,101781.65
2018-09-15T18:37:57.527Z,101786.91
2018-09-15T18:40:25.820Z,101792.16
2018-09-15T18:42:54.137Z,101797.53
2018-09-15T18:45:22.339Z,101804.28
2018-09-15T18:47:50.605Z,101805.86
2018-09-15T18:50:18.905Z,101809.76
2018-09-15T18:52:47.154Z,101808.56
2018-09-15T18:55:15.395Z,101808.33
2018-09-15T18:57:43.711Z,101804.74
2018-09-15T19:00:11.973Z,101811.83
2018-09-15T19:02:40.194Z,101818.80
2018-09-15T19:05:08.442Z,101820.11
2018-09-15T19:07:36.685Z,101819.75
2018-09-15T19:10:04.938Z,101820.80
2018-09-15T19:12:33.170Z,101826.52
2018-09-15T19:15:01.431Z,101833.56
2018-09-15T19:17:29.689Z,101826.75
2018-09-15T19:19:57.901Z,101827.59
2018-09-15T19:22:26.174Z,101829.15
2018-09-15T19:24:54.411Z,101827.52
2018-09-15T19:27:22.672Z,101827.55
2018-09-15T19:29:50.910Z,101835.98
2018-09-15T19:32:19.161Z,101830.69
2018-09-15T19:34:47.385Z,101829.00
2018-09-15T19:37:15.666Z,101833.72
2018-09-15T19:39:43.903Z,101836.66
2018-09-15T19:42:12.138Z,101841.22
2018-09-15T19:44:40.398Z,101841.97
2018-09-15T19:47:08.655Z,101847.78
2018-09-15T19:49:36.897Z,101853.02
2018-09-15T19:52:05.137Z,101849.41
2018-09-15T19:54:33.398Z,101850.31
2018-09-15T19:57:01.974Z,101846.81
2018-09-15T19:59:30.259Z,101847.72
2018-09-15T20:01:58.597Z,101842.47
2018-09-15T20:04:26.830Z,101840.25
2018-09-15T20:06:56.119Z,101845.56
2018-09-15T20:09:29.179Z,101841.66
2018-09-15T20:11:57.525Z,101848.76
2018-09-15T20:14:27.802Z,101848.84
2018-09-15T20:16:55.117Z,101843.10
2018-09-15T20:19:22.250Z,101849.32
2018-09-15T20:21:50.216Z,101839.39
2018-09-15T20:24:18.470Z,101840.66
2018-09-15T20:26:46.734Z,101848.62
2018-09-15T20:29:15.013Z,101845.12
2018-09-15T20:31:43.278Z,101849.34
2018-09-15T20:34:11.510Z,101857.66
2018-09-15T20:36:39.751Z,101859.82
2018-09-15T20:39:09.811Z,101851.14
2018-09-15T20:41:38.101Z,101855.62
2018-09-15T20:44:08.407Z,101855.62
2018-09-15T20:46:36.766Z,101853.95
2018-09-15T20:49:06.183Z,101849.56
2018-09-15T20:51:34.414Z,101854.37
2018-09-15T20:54:02.643Z,101858.73
2018-09-15T20:56:30.875Z,101863.59
2018-09-15T20:58:59.138Z,101864.84
2018-09-15T21:01:27.413Z,101859.69
2018-09-15T21:03:55.634Z,101861.86
2018-09-15T21:06:23.891Z,101868.02
2018-09-15T21:08:52.124Z,101868.39
2018-09-15T21:11:20.357Z,101867.06
2018-09-15T21:13:48.741Z,101874.95
2018-09-15T21:16:17.136Z,101880.71
2018-09-15T21:18:45.937Z,101875.95
2018-09-15T21:21:14.182Z,101883.77
2018-09-15T21:23:42.418Z,101869.37
2018-09-15T21:26:10.747Z,101874.62
2018-09-15T21:28:39.003Z,101875.98
2018-09-15T21:31:07.243Z,101873.77
2018-09-15T21:33:35.458Z,101870.36
2018-09-15T21:36:03.763Z,101874.25
2018-09-15T21:38:32.130Z,101873.84
2018-09-15T21:41:00.353Z,101876.03
2018-09-15T21:43:28.746Z,101876.05
2018-09-15T21:45:57.054Z,101874.28
2018-09-15T21:48:25.349Z,101870.37
2018-09-15T21:50:53.648Z,101869.05
2018-09-15T21:53:21.902Z,101866.48
2018-09-15T21:55:50.142Z,101876.04
2018-09-15T21:58:19.427Z,101866.92
2018-09-15T22:00:47.715Z,101871.25
2018-09-15T22:03:20.116Z,101872.13
2018-09-15T22:05:48.343Z,101880.85
2018-09-15T22:08:16.701Z,101875.66
2018-09-15T22:10:46.013Z,101872.59
2018-09-15T22:13:14.323Z,101875.20
2018-09-15T22:15:42.582Z,101880.45
2018-09-15T22:18:10.806Z,101878.24
2018-09-15T22:20:39.091Z,101876.92
2018-09-15T22:23:07.362Z,101886.53
2018-09-15T22:25:35.614Z,101887.39
2018-09-15T22:28:03.861Z,101894.37
2018-09-15T22:30:32.102Z,101889.12
2018-09-15T22:33:00.391Z,101885.66
2018-09-15T22:35:28.627Z,101892.62
2018-09-15T22:37:56.884Z,101890.84
2018-09-15T22:40:25.142Z,101882.14
2018-09-15T22:42:53.350Z,101887.80
2018-09-15T22:45:21.586Z,101885.62
2018-09-15T22:47:49.812Z,101888.69
2018-09-15T22:50:21.176Z,101878.66
2018-09-15T22:52:49.400Z,101876.05
2018-09-15T22:55:17.622Z,101879.08
2018-09-15T22:57:45.872Z,101871.69
2018-09-15T23:00:14.127Z,101868.20
2018-09-15T23:02:42.395Z,101878.16
2018-09-15T23:05:10.628Z,101875.16
2018-09-15T23:07:38.871Z,101872.52
2018-09-15T23:10:07.185Z,101874.64
2018-09-15T23:12:35.523Z,101868.95
2018-09-15T23:15:03.806Z,101872.09
2018-09-15T23:17:32.047Z,101865.94
2018-09-15T23:20:00.279Z,101871.58
2018-09-15T23:22:28.538Z,101861.09
2018-09-15T23:24:56.803Z,101863.76
2018-09-15T23:27:25.013Z,101865.98
2018-09-15T23:29:53.264Z,101858.56
2018-09-15T23:32:21.505Z,101859.34
2018-09-15T23:34:49.775Z,101858.11
2018-09-15T23:37:18.034Z,101852.44
2018-09-15T23:39:46.302Z,101860.30
2018-09-15T23:42:14.623Z,101852.42
2018-09-15T23:44:42.870Z,101853.66
2018-09-15T23:47:11.103Z,101848.34
2018-09-15T23:49:39.337Z,101847.93
2018-09-15T23:52:07.569Z,101839.75
2018-09-15T23:54:35.793Z,101835.83
2018-09-15T23:57:04.069Z,101843.66
2018-09-15T23:59:32.280Z,101837.59
